sensor_id;sensor_type;location;lat;lon;timestamp;pressure;altitude;pressure_sealevel;temperature;humidity
72409;BME280;60402;48.082;11.628;2022-12-17T00:02:38;95300.56;;;-3.10;97.55
72409;BME280;60402;48.082;11.628;2022-12-17T00:05:22;95279.91;;;-3.31;97.63
72409;BME280;60402;48.082;11.628;2022-12-17T00:08:07;95377.72;;;-2.85;97.79
72409;BME280;60402;48.082;11.628;2022-12-17T00:10:51;95382.16;;;-2.80;96.86
72409;BME280;60402;48.082;11.628;2022-12-17T00:13:35;95361.50;;;-2.87;97.42
72409;BME280;60402;48.082;11.628;2022-12-17T00:16:19;95331.75;;;-3.09;97.24
72409;BME280;60402;48.082;11.628;2022-12-17T00:19:03;95373.50;;;-2.79;96.33
72409;BME280;60402;48.082;11.628;2022-12-17T00:21:47;95381.28;;;-2.85;96.02
72409;BME280;60402;48.082;11.628;2022-12-17T00:24:31;95395.00;;;-2.88;97.11
72409;BME280;60402;48.082;11.628;2022-12-17T00:27:15;95381.66;;;-3.02;97.86
72409;BME280;60402;48.082;11.628;2022-12-17T00:29:59;95381.31;;;-3.00;95.81
72409;BME280;60402;48.082;11.628;2022-12-17T00:32:43;95386.91;;;-2.97;96.47
72409;BME280;60402;48.082;11.628;2022-12-17T00:35:27;95382.06;;;-2.84;95.35
72409;BME280;60402;48.082;11.628;2022-12-17T00:38:16;95395.47;;;-2.86;95.25
72409;BME280;60402;48.082;11.628;2022-12-17T00:41:00;95356.22;;;-3.27;95.68
72409;BME280;60402;48.082;11.628;2022-12-17T00:43:44;95403.06;;;-2.99;95.85
72409;BME280;60402;48.082;11.628;2022-12-17T00:46:28;95425.56;;;-3.00;95.79
72409;BME280;60402;48.082;11.628;2022-12-17T00:49:12;95371.09;;;-3.31;95.59
72409;BME280;60402;48.082;11.628;2022-12-17T00:51:56;95407.00;;;-3.00;96.06
72409;BME280;60402;48.082;11.628;2022-12-17T00:54:40;95436.56;;;-2.85;95.16
72409;BME280;60402;48.082;11.628;2022-12-17T00:57:24;95421.16;;;-3.01;96.01
72409;BME280;60402;48.082;11.628;2022-12-17T01:00:08;95424.47;;;-3.12;95.67
72409;BME280;60402;48.082;11.628;2022-12-17T01:02:52;95440.97;;;-2.99;95.58
72409;BME280;60402;48.082;11.628;2022-12-17T01:05:36;95382.50;;;-3.33;95.98
72409;BME280;60402;48.082;11.628;2022-12-17T01:08:20;95438.28;;;-3.12;96.35
72409;BME280;60402;48.082;11.628;2022-12-17T01:11:06;95396.69;;;-3.19;95.75
72409;BME280;60402;48.082;11.628;2022-12-17T01:13:52;95468.69;;;-2.80;96.07
72409;BME280;60402;48.082;11.628;2022-12-17T01:16:36;95429.72;;;-2.91;95.88
72409;BME280;60402;48.082;11.628;2022-12-17T01:19:20;95394.53;;;-3.10;94.35
72409;BME280;60402;48.082;11.628;2022-12-17T01:22:04;95442.56;;;-2.98;95.05
72409;BME280;60402;48.082;11.628;2022-12-17T01:24:49;95451.03;;;-2.91;95.13
72409;BME280;60402;48.082;11.628;2022-12-17T01:27:33;95456.03;;;-2.97;94.67
72409;BME280;60402;48.082;11.628;2022-12-17T01:30:17;95439.72;;;-3.02;94.38
72409;BME280;60402;48.082;11.628;2022-12-17T01:33:02;95483.94;;;-2.86;95.12
72409;BME280;60402;48.082;11.628;2022-12-17T01:35:47;95490.72;;;-2.84;94.61
72409;BME280;60402;48.082;11.628;2022-12-17T01:38:31;95472.78;;;-2.90;95.13
72409;BME280;60402;48.082;11.628;2022-12-17T01:41:18;95465.94;;;-2.96;94.99
72409;BME280;60402;48.082;11.628;2022-12-17T01:47:25;95493.94;;;-2.81;95.77
72409;BME280;60402;48.082;11.628;2022-12-17T01:50:09;95495.28;;;-2.91;95.95
72409;BME280;60402;48.082;11.628;2022-12-17T01:52:56;95465.31;;;-3.05;95.90
72409;BME280;60402;48.082;11.628;2022-12-17T01:55:42;95412.72;;;-3.40;95.37
72409;BME280;60402;48.082;11.628;2022-12-17T01:58:27;95480.38;;;-3.02;94.14
72409;BME280;60402;48.082;11.628;2022-12-17T02:01:11;95482.44;;;-2.99;94.59
72409;BME280;60402;48.082;11.628;2022-12-17T02:03:55;95505.19;;;-2.90;94.73
72409;BME280;60402;48.082;11.628;2022-12-17T02:06:44;95437.13;;;-3.58;95.59
72409;BME280;60402;48.082;11.628;2022-12-17T02:09:41;95475.94;;;-3.23;94.36
72409;BME280;60402;48.082;11.628;2022-12-17T02:12:49;95500.25;;;-3.13;94.29
72409;BME280;60402;48.082;11.628;2022-12-17T02:16:04;95443.28;;;-3.65;94.90
72409;BME280;60402;48.082;11.628;2022-12-17T02:18:57;95454.44;;;-3.45;95.22
72409;BME280;60402;48.082;11.628;2022-12-17T02:21:44;95526.41;;;-3.10;93.88
72409;BME280;60402;48.082;11.628;2022-12-17T02:24:46;95484.56;;;-3.40;93.98
72409;BME280;60402;48.082;11.628;2022-12-17T02:27:35;95442.22;;;-3.60;93.53
72409;BME280;60402;48.082;11.628;2022-12-17T02:30:19;95489.28;;;-3.41;93.40
72409;BME280;60402;48.082;11.628;2022-12-17T02:33:04;95493.63;;;-3.40;93.34
72409;BME280;60402;48.082;11.628;2022-12-17T02:35:56;95447.53;;;-3.67;93.01
72409;BME280;60402;48.082;11.628;2022-12-17T02:38:42;95499.16;;;-3.40;92.77
72409;BME280;60402;48.082;11.628;2022-12-17T02:41:28;95503.06;;;-3.56;93.60
72409;BME280;60402;48.082;11.628;2022-12-17T02:44:15;95513.88;;;-3.51;92.86
72409;BME280;60402;48.082;11.628;2022-12-17T02:47:02;95542.66;;;-3.37;93.27
72409;BME280;60402;48.082;11.628;2022-12-17T02:49:48;95459.25;;;-3.86;93.71
72409;BME280;60402;48.082;11.628;2022-12-17T02:52:34;95520.63;;;-3.49;93.56
72409;BME280;60402;48.082;11.628;2022-12-17T02:55:18;95468.25;;;-3.89;93.56
72409;BME280;60402;48.082;11.628;2022-12-17T02:58:02;95507.53;;;-3.52;93.19
72409;BME280;60402;48.082;11.628;2022-12-17T03:00:46;95525.81;;;-3.47;93.42
72409;BME280;60402;48.082;11.628;2022-12-17T03:03:30;95553.56;;;-3.28;92.77
72409;BME280;60402;48.082;11.628;2022-12-17T03:06:14;95471.97;;;-3.97;93.51
72409;BME280;60402;48.082;11.628;2022-12-17T03:08:58;95510.72;;;-3.66;93.27
72409;BME280;60402;48.082;11.628;2022-12-17T03:11:42;95522.00;;;-3.71;93.49
72409;BME280;60402;48.082;11.628;2022-12-17T03:14:26;95555.19;;;-3.55;92.80
72409;BME280;60402;48.082;11.628;2022-12-17T03:17:10;95512.84;;;-3.87;92.65
72409;BME280;60402;48.082;11.628;2022-12-17T03:19:54;95556.75;;;-3.70;93.42
72409;BME280;60402;48.082;11.628;2022-12-17T03:22:38;95574.47;;;-3.71;93.56
72409;BME280;60402;48.082;11.628;2022-12-17T03:25:22;95538.19;;;-3.97;92.94
72409;BME280;60402;48.082;11.628;2022-12-17T03:28:08;95573.72;;;-3.83;92.96
72409;BME280;60402;48.082;11.628;2022-12-17T03:30:53;95581.56;;;-3.86;92.89
72409;BME280;60402;48.082;11.628;2022-12-17T03:33:39;95565.03;;;-4.10;93.54
72409;BME280;60402;48.082;11.628;2022-12-17T03:36:23;95519.47;;;-4.44;94.51
72409;BME280;60402;48.082;11.628;2022-12-17T03:39:07;95555.63;;;-4.21;93.64
72409;BME280;60402;48.082;11.628;2022-12-17T03:41:51;95568.94;;;-4.11;91.96
72409;BME280;60402;48.082;11.628;2022-12-17T03:44:35;95587.69;;;-4.17;92.92
72409;BME280;60402;48.082;11.628;2022-12-17T03:47:19;95526.97;;;-4.69;93.91
72409;BME280;60402;48.082;11.628;2022-12-17T03:50:03;95578.97;;;-4.43;93.82
72409;BME280;60402;48.082;11.628;2022-12-17T03:52:48;95584.59;;;-4.52;94.53
72409;BME280;60402;48.082;11.628;2022-12-17T03:55:32;95570.63;;;-4.59;95.17
72409;BME280;60402;48.082;11.628;2022-12-17T03:58:16;95513.88;;;-4.84;94.20
72409;BME280;60402;48.082;11.628;2022-12-17T04:01:00;95560.50;;;-4.67;94.64
72409;BME280;60402;48.082;11.628;2022-12-17T04:03:43;95600.97;;;-4.47;95.08
72409;BME280;60402;48.082;11.628;2022-12-17T04:06:27;95588.75;;;-4.58;94.92
72409;BME280;60402;48.082;11.628;2022-12-17T04:09:11;95567.63;;;-4.78;95.15
72409;BME280;60402;48.082;11.628;2022-12-17T04:11:55;95603.13;;;-4.65;95.39
72409;BME280;60402;48.082;11.628;2022-12-17T04:14:39;95602.53;;;-4.82;95.86
72409;BME280;60402;48.082;11.628;2022-12-17T04:17:23;95596.31;;;-4.92;96.65
72409;BME280;60402;48.082;11.628;2022-12-17T04:20:07;95591.47;;;-5.07;96.34
72409;BME280;60402;48.082;11.628;2022-12-17T04:22:51;95591.66;;;-5.24;96.55
72409;BME280;60402;48.082;11.628;2022-12-17T04:25:35;95541.31;;;-5.58;96.58
72409;BME280;60402;48.082;11.628;2022-12-17T04:28:19;95622.53;;;-5.19;96.30
72409;BME280;60402;48.082;11.628;2022-12-17T04:31:03;95636.00;;;-5.17;96.26
72409;BME280;60402;48.082;11.628;2022-12-17T04:33:47;95644.50;;;-5.10;96.15
72409;BME280;60402;48.082;11.628;2022-12-17T04:36:31;95626.53;;;-5.28;96.84
72409;BME280;60402;48.082;11.628;2022-12-17T04:39:15;95632.94;;;-5.36;97.09
72409;BME280;60402;48.082;11.628;2022-12-17T04:41:59;95634.63;;;-5.44;97.56
72409;BME280;60402;48.082;11.628;2022-12-17T04:44:43;95644.91;;;-5.53;98.07
72409;BME280;60402;48.082;11.628;2022-12-17T04:47:27;95646.19;;;-5.51;98.43
72409;BME280;60402;48.082;11.628;2022-12-17T04:50:11;95637.81;;;-5.54;98.07
72409;BME280;60402;48.082;11.628;2022-12-17T04:52:59;95654.13;;;-5.49;97.96
72409;BME280;60402;48.082;11.628;2022-12-17T04:55:44;95633.63;;;-5.60;98.16
72409;BME280;60402;48.082;11.628;2022-12-17T04:58:28;95640.50;;;-5.67;98.15
72409;BME280;60402;48.082;11.628;2022-12-17T05:01:12;95659.28;;;-5.48;98.57
72409;BME280;60402;48.082;11.628;2022-12-17T05:03:56;95644.91;;;-5.53;98.69
72409;BME280;60402;48.082;11.628;2022-12-17T05:06:40;95668.22;;;-5.51;98.59
72409;BME280;60402;48.082;11.628;2022-12-17T05:09:23;95649.03;;;-5.59;99.00
72409;BME280;60402;48.082;11.628;2022-12-17T05:12:11;95649.34;;;-5.61;98.92
72409;BME280;60402;48.082;11.628;2022-12-17T05:14:54;95680.44;;;-5.40;99.09
72409;BME280;60402;48.082;11.628;2022-12-17T05:17:38;95691.31;;;-5.22;98.83
72409;BME280;60402;48.082;11.628;2022-12-17T05:20:22;95660.34;;;-5.40;99.18
72409;BME280;60402;48.082;11.628;2022-12-17T05:23:14;95655.31;;;-5.38;99.37
72409;BME280;60402;48.082;11.628;2022-12-17T05:26:04;95712.44;;;-4.81;98.75
72409;BME280;60402;48.082;11.628;2022-12-17T05:28:49;95688.28;;;-4.96;98.61
72409;BME280;60402;48.082;11.628;2022-12-17T05:31:33;95715.41;;;-4.86;99.24
72409;BME280;60402;48.082;11.628;2022-12-17T05:34:17;95686.91;;;-4.90;99.14
72409;BME280;60402;48.082;11.628;2022-12-17T05:37:01;95709.28;;;-4.58;98.21
72409;BME280;60402;48.082;11.628;2022-12-17T05:39:44;95701.69;;;-4.62;97.80
72409;BME280;60402;48.082;11.628;2022-12-17T05:42:28;95722.09;;;-4.42;97.07
72409;BME280;60402;48.082;11.628;2022-12-17T05:45:12;95704.81;;;-4.63;97.70
72409;BME280;60402;48.082;11.628;2022-12-17T05:47:57;95735.75;;;-4.33;97.47
72409;BME280;60402;48.082;11.628;2022-12-17T05:50:41;95698.13;;;-4.62;97.25
72409;BME280;60402;48.082;11.628;2022-12-17T05:53:25;95720.59;;;-4.51;97.65
72409;BME280;60402;48.082;11.628;2022-12-17T05:56:09;95748.66;;;-4.37;97.79
72409;BME280;60402;48.082;11.628;2022-12-17T05:58:53;95721.47;;;-4.47;97.74
72409;BME280;60402;48.082;11.628;2022-12-17T06:01:38;95725.63;;;-4.53;97.56
72409;BME280;60402;48.082;11.628;2022-12-17T06:04:21;95745.53;;;-4.35;97.18
72409;BME280;60402;48.082;11.628;2022-12-17T06:07:05;95732.75;;;-4.52;97.28
72409;BME280;60402;48.082;11.628;2022-12-17T06:09:49;95738.59;;;-4.54;96.74
72409;BME280;60402;48.082;11.628;2022-12-17T06:12:54;95739.06;;;-4.52;97.00
72409;BME280;60402;48.082;11.628;2022-12-17T06:15:38;95742.50;;;-4.55;95.86
72409;BME280;60402;48.082;11.628;2022-12-17T06:18:23;95679.88;;;-5.00;95.78
72409;BME280;60402;48.082;11.628;2022-12-17T06:21:07;95738.03;;;-4.59;95.66
72409;BME280;60402;48.082;11.628;2022-12-17T06:23:51;95750.41;;;-4.66;95.46
72409;BME280;60402;48.082;11.628;2022-12-17T06:26:35;95769.75;;;-4.53;94.96
72409;BME280;60402;48.082;11.628;2022-12-17T06:29:19;95767.19;;;-4.58;95.14
72409;BME280;60402;48.082;11.628;2022-12-17T06:32:03;95697.19;;;-5.11;94.73
72409;BME280;60402;48.082;11.628;2022-12-17T06:34:47;95744.00;;;-4.91;95.22
72409;BME280;60402;48.082;11.628;2022-12-17T06:37:31;95771.75;;;-4.75;95.18
72409;BME280;60402;48.082;11.628;2022-12-17T06:40:15;95749.66;;;-4.87;95.30
72409;BME280;60402;48.082;11.628;2022-12-17T06:42:59;95771.03;;;-4.84;95.22
72409;BME280;60402;48.082;11.628;2022-12-17T06:45:43;95798.84;;;-4.77;95.38
72409;BME280;60402;48.082;11.628;2022-12-17T06:48:27;95783.06;;;-4.89;94.70
72409;BME280;60402;48.082;11.628;2022-12-17T06:51:11;95791.28;;;-5.01;95.10
72409;BME280;60402;48.082;11.628;2022-12-17T06:53:55;95821.25;;;-4.78;94.77
72409;BME280;60402;48.082;11.628;2022-12-17T06:56:39;95737.94;;;-5.38;95.25
72409;BME280;60402;48.082;11.628;2022-12-17T06:59:22;95787.63;;;-5.14;95.48
72409;BME280;60402;48.082;11.628;2022-12-17T07:02:09;95819.44;;;-4.95;95.40
72409;BME280;60402;48.082;11.628;2022-12-17T07:04:54;95805.31;;;-5.15;95.31
72409;BME280;60402;48.082;11.628;2022-12-17T07:07:38;95821.59;;;-5.22;95.75
72409;BME280;60402;48.082;11.628;2022-12-17T07:10:22;95832.16;;;-5.03;94.76
72409;BME280;60402;48.082;11.628;2022-12-17T07:13:07;95844.44;;;-4.79;93.62
72409;BME280;60402;48.082;11.628;2022-12-17T07:15:52;95840.47;;;-4.91;93.93
72409;BME280;60402;48.082;11.628;2022-12-17T07:18:36;95852.38;;;-4.78;93.51
72409;BME280;60402;48.082;11.628;2022-12-17T07:21:20;95808.88;;;-5.14;93.57
72409;BME280;60402;48.082;11.628;2022-12-17T07:24:07;95813.19;;;-5.04;93.25
72409;BME280;60402;48.082;11.628;2022-12-17T07:26:52;95762.59;;;-5.21;92.40
72409;BME280;60402;48.082;11.628;2022-12-17T07:29:36;95826.47;;;-4.85;92.53
72409;BME280;60402;48.082;11.628;2022-12-17T07:32:20;95839.66;;;-4.70;92.46
72409;BME280;60402;48.082;11.628;2022-12-17T07:35:04;95837.53;;;-4.52;90.86
72409;BME280;60402;48.082;11.628;2022-12-17T07:37:48;95795.75;;;-4.75;90.67
72409;BME280;60402;48.082;11.628;2022-12-17T07:40:32;95832.22;;;-4.24;89.70
72409;BME280;60402;48.082;11.628;2022-12-17T07:43:16;95848.81;;;-3.67;87.97
72409;BME280;60402;48.082;11.628;2022-12-17T07:46:00;95823.38;;;-3.60;86.74
72409;BME280;60402;48.082;11.628;2022-12-17T07:48:44;95787.44;;;-3.72;86.11
72409;BME280;60402;48.082;11.628;2022-12-17T07:51:29;95880.13;;;-3.14;85.80
72409;BME280;60402;48.082;11.628;2022-12-17T07:54:12;95884.69;;;-2.93;84.86
72409;BME280;60402;48.082;11.628;2022-12-17T07:56:56;95822.78;;;-3.41;84.75
72409;BME280;60402;48.082;11.628;2022-12-17T07:59:40;95844.41;;;-3.31;84.79
72409;BME280;60402;48.082;11.628;2022-12-17T08:02:24;95859.41;;;-3.20;84.67
72409;BME280;60402;48.082;11.628;2022-12-17T08:05:08;95831.25;;;-2.97;83.92
72409;BME280;60402;48.082;11.628;2022-12-17T08:07:52;95866.38;;;-2.17;80.04
72409;BME280;60402;48.082;11.628;2022-12-17T08:10:36;95852.16;;;-1.56;77.53
72409;BME280;60402;48.082;11.628;2022-12-17T08:13:20;95821.13;;;-1.30;75.75
72409;BME280;60402;48.082;11.628;2022-12-17T08:16:04;95893.41;;;-0.37;73.72
72409;BME280;60402;48.082;11.628;2022-12-17T08:18:48;95811.19;;;0.66;68.28
72409;BME280;60402;48.082;11.628;2022-12-17T08:21:32;95813.09;;;2.05;63.28
72409;BME280;60402;48.082;11.628;2022-12-17T08:24:16;95876.06;;;4.02;59.27
72409;BME280;60402;48.082;11.628;2022-12-17T08:27:00;95905.50;;;4.72;56.56
72409;BME280;60402;48.082;11.628;2022-12-17T08:29:44;95871.94;;;5.54;53.37
72409;BME280;60402;48.082;11.628;2022-12-17T08:32:28;95907.41;;;6.43;52.34
72409;BME280;60402;48.082;11.628;2022-12-17T08:35:12;95914.72;;;7.62;49.11
72409;BME280;60402;48.082;11.628;2022-12-17T08:38:03;95901.00;;;8.78;47.49
72409;BME280;60402;48.082;11.628;2022-12-17T08:40:47;95882.31;;;9.68;44.17
72409;BME280;60402;48.082;11.628;2022-12-17T08:43:31;95920.19;;;10.61;42.28
72409;BME280;60402;48.082;11.628;2022-12-17T08:46:16;95901.06;;;11.25;41.34
72409;BME280;60402;48.082;11.628;2022-12-17T08:49:00;95916.88;;;12.24;38.29
72409;BME280;60402;48.082;11.628;2022-12-17T08:51:44;95927.63;;;12.45;38.26
72409;BME280;60402;48.082;11.628;2022-12-17T08:54:28;95925.75;;;13.26;35.91
72409;BME280;60402;48.082;11.628;2022-12-17T08:57:12;95920.72;;;14.32;33.56
72409;BME280;60402;48.082;11.628;2022-12-17T08:59:56;95911.22;;;14.61;34.10
72409;BME280;60402;48.082;11.628;2022-12-17T09:02:39;95896.47;;;15.19;32.62
72409;BME280;60402;48.082;11.628;2022-12-17T09:05:23;95937.94;;;15.73;31.97
72409;BME280;60402;48.082;11.628;2022-12-17T09:08:07;95918.50;;;15.80;30.84
72409;BME280;60402;48.082;11.628;2022-12-17T09:10:51;95933.44;;;15.94;30.61
72409;BME280;60402;48.082;11.628;2022-12-17T09:13:36;95929.13;;;16.29;28.16
72409;BME280;60402;48.082;11.628;2022-12-17T09:16:20;95906.34;;;14.61;30.66
72409;BME280;60402;48.082;11.628;2022-12-17T09:19:15;95931.00;;;15.52;31.14
72409;BME280;60402;48.082;11.628;2022-12-17T09:21:59;95940.16;;;16.18;28.74
72409;BME280;60402;48.082;11.628;2022-12-17T09:24:43;95907.97;;;14.49;29.78
72409;BME280;60402;48.082;11.628;2022-12-17T09:27:27;95947.81;;;15.06;30.45
72409;BME280;60402;48.082;11.628;2022-12-17T09:30:11;95942.41;;;12.82;32.13
72409;BME280;60402;48.082;11.628;2022-12-17T09:32:55;95952.78;;;11.78;33.78
72409;BME280;60402;48.082;11.628;2022-12-17T09:35:39;95977.22;;;10.96;36.18
72409;BME280;60402;48.082;11.628;2022-12-17T09:38:24;95968.31;;;10.97;34.35
72409;BME280;60402;48.082;11.628;2022-12-17T09:41:29;95974.16;;;9.19;37.11
72409;BME280;60402;48.082;11.628;2022-12-17T09:47:40;95982.88;;;7.18;41.11
72409;BME280;60402;48.082;11.628;2022-12-17T09:50:26;95958.44;;;5.38;45.86
72409;BME280;60402;48.082;11.628;2022-12-17T09:53:21;95990.09;;;5.71;46.02
72409;BME280;60402;48.082;11.628;2022-12-17T09:56:09;96003.59;;;4.17;49.55
72409;BME280;60402;48.082;11.628;2022-12-17T09:58:55;95995.44;;;4.60;49.33
72409;BME280;60402;48.082;11.628;2022-12-17T10:01:39;95962.28;;;3.38;50.10
72409;BME280;60402;48.082;11.628;2022-12-17T10:04:31;95970.75;;;2.67;53.86
72409;BME280;60402;48.082;11.628;2022-12-17T10:07:21;96004.16;;;2.60;55.10
72409;BME280;60402;48.082;11.628;2022-12-17T10:10:17;95973.78;;;1.64;56.94
72409;BME280;60402;48.082;11.628;2022-12-17T10:13:09;96004.69;;;2.09;57.07
72409;BME280;60402;48.082;11.628;2022-12-17T10:15:53;95990.59;;;0.99;59.23
72409;BME280;60402;48.082;11.628;2022-12-17T10:18:37;95996.34;;;1.33;59.19
72409;BME280;60402;48.082;11.628;2022-12-17T10:21:21;95959.53;;;0.74;61.10
72409;BME280;60402;48.082;11.628;2022-12-17T10:24:09;96016.22;;;0.89;62.13
72409;BME280;60402;48.082;11.628;2022-12-17T10:26:53;95953.88;;;0.70;61.84
72409;BME280;60402;48.082;11.628;2022-12-17T10:29:39;95988.91;;;0.33;63.25
72409;BME280;60402;48.082;11.628;2022-12-17T10:32:24;96006.19;;;0.22;64.42
72409;BME280;60402;48.082;11.628;2022-12-17T10:38:15;96021.28;;;-0.14;66.61
72409;BME280;60402;48.082;11.628;2022-12-17T10:41:02;96025.84;;;0.14;65.72
72409;BME280;60402;48.082;11.628;2022-12-17T10:43:46;96013.09;;;-0.07;64.39
72409;BME280;60402;48.082;11.628;2022-12-17T10:46:32;96000.00;;;-0.06;65.38
72409;BME280;60402;48.082;11.628;2022-12-17T10:49:19;96032.38;;;-0.14;66.94
72409;BME280;60402;48.082;11.628;2022-12-17T10:52:27;96035.13;;;0.02;65.78
72409;BME280;60402;48.082;11.628;2022-12-17T10:55:24;96034.09;;;-0.09;67.34
72409;BME280;60402;48.082;11.628;2022-12-17T10:58:15;96028.59;;;-0.06;66.99
72409;BME280;60402;48.082;11.628;2022-12-17T11:01:02;96009.63;;;-0.70;68.96
72409;BME280;60402;48.082;11.628;2022-12-17T11:03:54;96023.16;;;-0.18;68.83
72409;BME280;60402;48.082;11.628;2022-12-17T11:06:47;96000.28;;;-0.46;69.27
72409;BME280;60402;48.082;11.628;2022-12-17T11:09:46;96035.31;;;-0.07;68.89
72409;BME280;60402;48.082;11.628;2022-12-17T11:12:56;96034.00;;;-0.29;70.90
72409;BME280;60402;48.082;11.628;2022-12-17T11:15:45;96020.72;;;-0.55;71.85
72409;BME280;60402;48.082;11.628;2022-12-17T11:18:47;96020.16;;;-0.76;72.93
72409;BME280;60402;48.082;11.628;2022-12-17T11:21:42;96042.31;;;-0.80;74.32
72409;BME280;60402;48.082;11.628;2022-12-17T11:24:32;96037.00;;;-0.69;73.88
72409;BME280;60402;48.082;11.628;2022-12-17T11:27:21;95951.97;;;-1.09;73.70
72409;BME280;60402;48.082;11.628;2022-12-17T11:30:14;96035.31;;;-0.89;74.98
72409;BME280;60402;48.082;11.628;2022-12-17T11:33:26;96049.41;;;-0.94;74.60
72409;BME280;60402;48.082;11.628;2022-12-17T11:39:07;96038.78;;;-1.08;75.54
72409;BME280;60402;48.082;11.628;2022-12-17T11:42:00;96003.53;;;-1.08;74.77
72409;BME280;60402;48.082;11.628;2022-12-17T11:51:05;96024.91;;;-0.92;74.46
72409;BME280;60402;48.082;11.628;2022-12-17T11:54:19;96023.38;;;-0.90;74.42
72409;BME280;60402;48.082;11.628;2022-12-17T12:00:19;96025.66;;;-0.80;74.10
72409;BME280;60402;48.082;11.628;2022-12-17T12:03:23;96021.78;;;-0.59;73.88
72409;BME280;60402;48.082;11.628;2022-12-17T12:06:19;96034.25;;;-0.85;74.16
72409;BME280;60402;48.082;11.628;2022-12-17T12:17:54;95994.56;;;-1.01;74.64
72409;BME280;60402;48.082;11.628;2022-12-17T12:21:05;96024.47;;;-0.47;73.66
72409;BME280;60402;48.082;11.628;2022-12-17T12:27:04;96026.88;;;-0.77;75.33
72409;BME280;60402;48.082;11.628;2022-12-17T12:29:57;96029.13;;;-0.83;75.78
72409;BME280;60402;48.082;11.628;2022-12-17T12:35:34;96001.81;;;-0.96;75.44
72409;BME280;60402;48.082;11.628;2022-12-17T12:38:27;95998.16;;;-1.00;74.91
72409;BME280;60402;48.082;11.628;2022-12-17T12:45:02;96036.44;;;-1.06;77.92
72409;BME280;60402;48.082;11.628;2022-12-17T12:47:56;96025.78;;;-1.20;77.48
72409;BME280;60402;48.082;11.628;2022-12-17T12:53:29;96007.88;;;-1.66;78.43
72409;BME280;60402;48.082;11.628;2022-12-17T12:56:34;96034.56;;;-1.46;79.60
72409;BME280;60402;48.082;11.628;2022-12-17T12:59:30;96041.13;;;-1.66;79.62
72409;BME280;60402;48.082;11.628;2022-12-17T13:02:28;96041.81;;;-1.41;79.88
72409;BME280;60402;48.082;11.628;2022-12-17T13:05:27;95926.91;;;-2.44;81.42
72409;BME280;60402;48.082;11.628;2022-12-17T13:10:34;95984.09;;;-1.67;80.49
72409;BME280;60402;48.082;11.628;2022-12-17T13:13:34;96039.47;;;-1.55;80.82
72409;BME280;60402;48.082;11.628;2022-12-17T13:16:06;96037.16;;;-1.93;83.02
72409;BME280;60402;48.082;11.628;2022-12-17T13:18:43;96012.88;;;-1.84;81.70
72409;BME280;60402;48.082;11.628;2022-12-17T13:23:39;96028.28;;;-1.87;81.48
72409;BME280;60402;48.082;11.628;2022-12-17T13:26:16;96040.31;;;-1.39;81.20
72409;BME280;60402;48.082;11.628;2022-12-17T13:28:48;96049.56;;;-1.75;82.45
72409;BME280;60402;48.082;11.628;2022-12-17T13:31:20;96042.47;;;-2.53;85.16
72409;BME280;60402;48.082;11.628;2022-12-17T13:34:14;96068.38;;;-2.45;86.59
72409;BME280;60402;48.082;11.628;2022-12-17T13:36:51;96063.41;;;-2.27;84.34
72409;BME280;60402;48.082;11.628;2022-12-17T13:39:53;96053.78;;;-1.93;84.14
72409;BME280;60402;48.082;11.628;2022-12-17T13:42:33;96065.69;;;-1.93;84.42
72409;BME280;60402;48.082;11.628;2022-12-17T13:44:59;96063.00;;;-1.89;83.64
72409;BME280;60402;48.082;11.628;2022-12-17T13:47:31;96055.44;;;-2.04;84.83
72409;BME280;60402;48.082;11.628;2022-12-17T13:49:58;96052.91;;;-2.10;84.03
72409;BME280;60402;48.082;11.628;2022-12-17T13:52:28;96063.38;;;-2.03;84.31
72409;BME280;60402;48.082;11.628;2022-12-17T13:55:05;96076.53;;;-2.00;84.14
72409;BME280;60402;48.082;11.628;2022-12-17T13:57:30;96063.28;;;-2.07;83.81
72409;BME280;60402;48.082;11.628;2022-12-17T13:59:58;96081.41;;;-2.34;86.69
72409;BME280;60402;48.082;11.628;2022-12-17T14:02:29;96025.50;;;-2.39;85.69
72409;BME280;60402;48.082;11.628;2022-12-17T14:04:57;96088.31;;;-2.03;84.91
72409;BME280;60402;48.082;11.628;2022-12-17T14:07:25;96056.38;;;-2.37;86.06
72409;BME280;60402;48.082;11.628;2022-12-17T14:09:51;96084.41;;;-2.26;86.52
72409;BME280;60402;48.082;11.628;2022-12-17T14:12:19;96073.81;;;-2.37;85.53
72409;BME280;60402;48.082;11.628;2022-12-17T14:14:58;96106.44;;;-2.42;86.15
72409;BME280;60402;48.082;11.628;2022-12-17T14:17:28;96111.41;;;-2.48;86.56
72409;BME280;60402;48.082;11.628;2022-12-17T14:20:01;96087.75;;;-2.45;86.37
72409;BME280;60402;48.082;11.628;2022-12-17T14:22:32;96093.63;;;-2.59;86.97
72409;BME280;60402;48.082;11.628;2022-12-17T14:25:00;96107.34;;;-2.50;86.85
72409;BME280;60402;48.082;11.628;2022-12-17T14:27:31;96084.03;;;-2.74;87.54
72409;BME280;60402;48.082;11.628;2022-12-17T14:29:57;96089.13;;;-2.76;88.15
72409;BME280;60402;48.082;11.628;2022-12-17T14:32:29;96109.28;;;-2.75;88.64
72409;BME280;60402;48.082;11.628;2022-12-17T14:34:54;96119.47;;;-3.13;91.32
72409;BME280;60402;48.082;11.628;2022-12-17T14:37:23;96117.19;;;-3.31;92.94
72409;BME280;60402;48.082;11.628;2022-12-17T14:39:49;96091.44;;;-3.56;93.09
72409;BME280;60402;48.082;11.628;2022-12-17T14:42:18;96129.28;;;-3.36;93.49
72409;BME280;60402;48.082;11.628;2022-12-17T14:45:03;96139.25;;;-3.23;91.90
72409;BME280;60402;48.082;11.628;2022-12-17T14:47:34;96129.72;;;-3.13;90.59
72409;BME280;60402;48.082;11.628;2022-12-17T14:54:58;96104.09;;;-3.22;90.10
72409;BME280;60402;48.082;11.628;2022-12-17T14:57:23;96116.03;;;-3.30;90.93
72409;BME280;60402;48.082;11.628;2022-12-17T14:59:49;96123.06;;;-3.33;90.86
72409;BME280;60402;48.082;11.628;2022-12-17T15:02:25;96128.63;;;-3.21;90.76
72409;BME280;60402;48.082;11.628;2022-12-17T15:04:54;96097.31;;;-3.79;91.62
72409;BME280;60402;48.082;11.628;2022-12-17T15:07:25;96137.25;;;-3.55;92.05
72409;BME280;60402;48.082;11.628;2022-12-17T15:09:54;96146.47;;;-3.51;91.86
72409;BME280;60402;48.082;11.628;2022-12-17T15:12:21;96155.50;;;-3.63;92.06
72409;BME280;60402;48.082;11.628;2022-12-17T15:14:47;96139.72;;;-3.83;93.31